sensor_id;sensor_type;location;lat;lon;timestamp;temperature;humidity
37702;DHT22;23548;51.196;6.838;2023-10-09T00:01:28;13.70;99.90
37702;DHT22;23548;51.196;6.838;2023-10-09T00:03:54;13.80;99.90
37702;DHT22;23548;51.196;6.838;2023-10-09T00:06:22;13.70;99.90
37702;DHT22;23548;51.196;6.838;2023-10-09T00:09:02;13.70;99.90
37702;DHT22;23548;51.196;6.838;2023-10-09T00:11:42;13.60;99.90
37702;DHT22;23548;51.196;6.838;2023-10-09T00:14:11;13.60;99.90
37702;DHT22;23548;51.196;6.838;2023-10-09T00:16:37;13.60;99.90
37702;DHT22;23548;51.196;6.838;2023-10-09T00:19:13;13.60;99.90
37702;DHT22;23548;51.196;6.838;2023-10-09T00:21:59;13.50;99.90
37702;DHT22;23548;51.196;6.838;2023-10-09T00:24:32;13.50;99.90
37702;DHT22;23548;51.196;6.838;2023-10-09T00:26:58;13.40;99.90
37702;DHT22;23548;51.196;6.838;2023-10-09T00:29:40;13.40;99.90
37702;DHT22;23548;51.196;6.838;2023-10-09T00:32:12;13.40;99.90
37702;DHT22;23548;51.196;6.838;2023-10-09T00:34:52;13.30;99.90
37702;DHT22;23548;51.196;6.838;2023-10-09T00:37:19;13.40;99.90
37702;DHT22;23548;51.196;6.838;2023-10-09T00:39:52;13.50;99.90
37702;DHT22;23548;51.196;6.838;2023-10-09T00:42:25;13.50;99.90
37702;DHT22;23548;51.196;6.838;2023-10-09T00:45:04;13.50;99.90
37702;DHT22;23548;51.196;6.838;2023-10-09T00:47:34;13.50;99.90
37702;DHT22;23548;51.196;6.838;2023-10-09T00:50:05;13.50;99.90
37702;DHT22;23548;51.196;6.838;2023-10-09T00:52:42;13.50;99.90
37702;DHT22;23548;51.196;6.838;2023-10-09T00:55:26;13.50;99.90
37702;DHT22;23548;51.196;6.838;2023-10-09T00:58:15;13.50;99.90
37702;DHT22;23548;51.196;6.838;2023-10-09T01:00:49;13.60;99.90
37702;DHT22;23548;51.196;6.838;2023-10-09T01:03:16;13.60;99.90
37702;DHT22;23548;51.196;6.838;2023-10-09T01:05:54;13.60;99.90
37702;DHT22;23548;51.196;6.838;2023-10-09T01:08:29;13.60;99.90
37702;DHT22;23548;51.196;6.838;2023-10-09T01:14:22;13.50;99.90
37702;DHT22;23548;51.196;6.838;2023-10-09T01:16:48;13.60;99.90
37702;DHT22;23548;51.196;6.838;2023-10-09T01:19:14;13.60;99.90
37702;DHT22;23548;51.196;6.838;2023-10-09T01:21:52;13.60;99.90
37702;DHT22;23548;51.196;6.838;2023-10-09T01:24:19;13.60;99.90
37702;DHT22;23548;51.196;6.838;2023-10-09T01:26:46;13.70;99.90
37702;DHT22;23548;51.196;6.838;2023-10-09T01:29:22;13.70;99.90
37702;DHT22;23548;51.196;6.838;2023-10-09T01:31:52;13.70;99.90
37702;DHT22;23548;51.196;6.838;2023-10-09T01:34:25;13.70;99.90
37702;DHT22;23548;51.196;6.838;2023-10-09T01:37:08;13.70;99.90
37702;DHT22;23548;51.196;6.838;2023-10-09T01:39:43;13.70;99.90
37702;DHT22;23548;51.196;6.838;2023-10-09T01:42:10;13.70;99.90
37702;DHT22;23548;51.196;6.838;2023-10-09T01:44:36;13.70;99.90
37702;DHT22;23548;51.196;6.838;2023-10-09T01:47:09;13.70;99.90
37702;DHT22;23548;51.196;6.838;2023-10-09T01:49:40;13.70;99.90
37702;DHT22;23548;51.196;6.838;2023-10-09T01:52:10;13.80;99.90
37702;DHT22;23548;51.196;6.838;2023-10-09T01:54:43;13.70;99.90
37702;DHT22;23548;51.196;6.838;2023-10-09T01:57:16;13.70;99.90
37702;DHT22;23548;51.196;6.838;2023-10-09T01:59:47;13.90;99.90
37702;DHT22;23548;51.196;6.838;2023-10-09T02:02:15;13.80;99.90
37702;DHT22;23548;51.196;6.838;2023-10-09T02:05:06;13.80;99.90
37702;DHT22;23548;51.196;6.838;2023-10-09T02:07:52;13.80;99.90
37702;DHT22;23548;51.196;6.838;2023-10-09T02:10:22;13.80;99.90
37702;DHT22;23548;51.196;6.838;2023-10-09T02:12:58;13.80;99.90
37702;DHT22;23548;51.196;6.838;2023-10-09T02:15:28;13.80;99.90
37702;DHT22;23548;51.196;6.838;2023-10-09T02:18:11;13.80;99.90
37702;DHT22;23548;51.196;6.838;2023-10-09T02:23:41;13.70;99.90
37702;DHT22;23548;51.196;6.838;2023-10-09T02:26:13;13.80;99.90
37702;DHT22;23548;51.196;6.838;2023-10-09T02:28:55;13.80;99.90
37702;DHT22;23548;51.196;6.838;2023-10-09T02:31:50;13.80;99.90
37702;DHT22;23548;51.196;6.838;2023-10-09T02:34:35;13.80;99.90
37702;DHT22;23548;51.196;6.838;2023-10-09T02:37:03;13.70;99.90
37702;DHT22;23548;51.196;6.838;2023-10-09T02:39:38;13.70;99.90
37702;DHT22;23548;51.196;6.838;2023-10-09T02:42:13;13.70;99.90
37702;DHT22;23548;51.196;6.838;2023-10-09T02:44:38;13.70;99.90
37702;DHT22;23548;51.196;6.838;2023-10-09T02:47:21;13.70;99.90
37702;DHT22;23548;51.196;6.838;2023-10-09T02:49:50;13.70;99.90
37702;DHT22;23548;51.196;6.838;2023-10-09T02:52:17;13.70;99.90
37702;DHT22;23548;51.196;6.838;2023-10-09T02:54:45;13.80;99.90
37702;DHT22;23548;51.196;6.838;2023-10-09T02:57:13;13.80;99.90
37702;DHT22;23548;51.196;6.838;2023-10-09T02:59:49;13.70;99.90
37702;DHT22;23548;51.196;6.838;2023-10-09T03:02:18;13.80;99.90
37702;DHT22;23548;51.196;6.838;2023-10-09T03:04:44;13.80;99.90
37702;DHT22;23548;51.196;6.838;2023-10-09T03:07:10;13.80;99.90
37702;DHT22;23548;51.196;6.838;2023-10-09T03:09:39;13.90;99.90
37702;DHT22;23548;51.196;6.838;2023-10-09T03:12:06;13.80;99.90
37702;DHT22;23548;51.196;6.838;2023-10-09T03:14:37;13.90;99.90
37702;DHT22;23548;51.196;6.838;2023-10-09T03:17:06;13.80;99.90
37702;DHT22;23548;51.196;6.838;2023-10-09T03:19:37;13.70;99.90
37702;DHT22;23548;51.196;6.838;2023-10-09T03:22:06;13.80;99.90
37702;DHT22;23548;51.196;6.838;2023-10-09T03:24:36;13.80;99.90
37702;DHT22;23548;51.196;6.838;2023-10-09T03:27:05;13.90;99.90
37702;DHT22;23548;51.196;6.838;2023-10-09T03:29:31;13.90;99.90
37702;DHT22;23548;51.196;6.838;2023-10-09T03:31:57;13.80;99.90
37702;DHT22;23548;51.196;6.838;2023-10-09T03:34:23;13.90;99.90
37702;DHT22;23548;51.196;6.838;2023-10-09T03:36:52;13.90;99.90
37702;DHT22;23548;51.196;6.838;2023-10-09T03:39:32;14.00;99.90
37702;DHT22;23548;51.196;6.838;2023-10-09T03:42:01;14.00;99.90
37702;DHT22;23548;51.196;6.838;2023-10-09T03:44:34;14.00;99.90
37702;DHT22;23548;51.196;6.838;2023-10-09T03:47:04;14.00;99.90
37702;DHT22;23548;51.196;6.838;2023-10-09T03:49:30;13.90;99.90
37702;DHT22;23548;51.196;6.838;2023-10-09T03:51:57;14.00;99.90
37702;DHT22;23548;51.196;6.838;2023-10-09T03:54:24;13.90;99.90
37702;DHT22;23548;51.196;6.838;2023-10-09T03:56:51;13.90;99.90
37702;DHT22;23548;51.196;6.838;2023-10-09T03:59:18;13.90;99.90
37702;DHT22;23548;51.196;6.838;2023-10-09T04:01:46;14.00;99.90
37702;DHT22;23548;51.196;6.838;2023-10-09T04:04:14;14.00;99.90
37702;DHT22;23548;51.196;6.838;2023-10-09T04:06:40;14.00;99.90
37702;DHT22;23548;51.196;6.838;2023-10-09T04:09:10;13.90;99.90
37702;DHT22;23548;51.196;6.838;2023-10-09T04:14:50;14.00;99.90
37702;DHT22;23548;51.196;6.838;2023-10-09T04:17:20;14.00;99.90
37702;DHT22;23548;51.196;6.838;2023-10-09T04:19:55;14.10;99.90
37702;DHT22;23548;51.196;6.838;2023-10-09T04:22:40;14.10;99.90
37702;DHT22;23548;51.196;6.838;2023-10-09T04:25:20;14.10;99.90
37702;DHT22;23548;51.196;6.838;2023-10-09T04:27:56;14.10;99.90
37702;DHT22;23548;51.196;6.838;2023-10-09T04:30:36;14.10;99.90
37702;DHT22;23548;51.196;6.838;2023-10-09T04:33:06;14.10;99.90
37702;DHT22;23548;51.196;6.838;2023-10-09T04:35:37;14.00;99.90
37702;DHT22;23548;51.196;6.838;2023-10-09T04:38:03;14.00;99.90
37702;DHT22;23548;51.196;6.838;2023-10-09T04:40:32;14.10;99.90
37702;DHT22;23548;51.196;6.838;2023-10-09T04:43:16;14.20;99.90
37702;DHT22;23548;51.196;6.838;2023-10-09T04:45:48;14.10;99.90
37702;DHT22;23548;51.196;6.838;2023-10-09T04:48:33;14.00;99.90
37702;DHT22;23548;51.196;6.838;2023-10-09T04:51:03;14.00;99.90
37702;DHT22;23548;51.196;6.838;2023-10-09T04:54:00;14.00;99.90
37702;DHT22;23548;51.196;6.838;2023-10-09T04:56:39;14.10;99.90
37702;DHT22;23548;51.196;6.838;2023-10-09T04:59:21;14.10;99.90
37702;DHT22;23548;51.196;6.838;2023-10-09T05:01:53;14.10;99.90
37702;DHT22;23548;51.196;6.838;2023-10-09T05:04:27;14.10;99.90
37702;DHT22;23548;51.196;6.838;2023-10-09T05:07:06;14.20;99.90
37702;DHT22;23548;51.196;6.838;2023-10-09T05:09:51;14.20;99.90
37702;DHT22;23548;51.196;6.838;2023-10-09T05:12:41;14.20;99.90
37702;DHT22;23548;51.196;6.838;2023-10-09T05:15:13;14.10;99.90
37702;DHT22;23548;51.196;6.838;2023-10-09T05:17:39;14.20;99.90
37702;DHT22;23548;51.196;6.838;2023-10-09T05:20:06;14.20;99.90
37702;DHT22;23548;51.196;6.838;2023-10-09T05:22:50;14.30;99.90
37702;DHT22;23548;51.196;6.838;2023-10-09T05:25:34;14.20;99.90
37702;DHT22;23548;51.196;6.838;2023-10-09T05:28:19;14.20;99.90
37702;DHT22;23548;51.196;6.838;2023-10-09T05:30:54;14.20;99.90
37702;DHT22;23548;51.196;6.838;2023-10-09T05:33:36;14.30;99.90
37702;DHT22;23548;51.196;6.838;2023-10-09T05:36:05;14.20;99.90
37702;DHT22;23548;51.196;6.838;2023-10-09T05:38:57;14.20;99.90
37702;DHT22;23548;51.196;6.838;2023-10-09T05:41:44;14.20;99.90
37702;DHT22;23548;51.196;6.838;2023-10-09T05:44:13;14.30;99.90
37702;DHT22;23548;51.196;6.838;2023-10-09T05:46:58;14.40;99.90
37702;DHT22;23548;51.196;6.838;2023-10-09T05:49:42;14.40;99.90
37702;DHT22;23548;51.196;6.838;2023-10-09T05:52:40;14.40;99.90
37702;DHT22;23548;51.196;6.838;2023-10-09T05:55:06;14.40;99.90
37702;DHT22;23548;51.196;6.838;2023-10-09T05:57:55;14.50;99.90
37702;DHT22;23548;51.196;6.838;2023-10-09T06:00:26;14.50;99.90
37702;DHT22;23548;51.196;6.838;2023-10-09T06:03:11;14.50;99.90
37702;DHT22;23548;51.196;6.838;2023-10-09T06:05:50;14.50;99.90
37702;DHT22;23548;51.196;6.838;2023-10-09T06:08:29;14.50;99.90
37702;DHT22;23548;51.196;6.838;2023-10-09T06:11:08;14.50;99.90
37702;DHT22;23548;51.196;6.838;2023-10-09T06:13:58;14.50;99.90
37702;DHT22;23548;51.196;6.838;2023-10-09T06:16:42;14.50;99.90
37702;DHT22;23548;51.196;6.838;2023-10-09T06:19:13;14.60;99.90
37702;DHT22;23548;51.196;6.838;2023-10-09T06:21:45;14.50;99.90
37702;DHT22;23548;51.196;6.838;2023-10-09T06:24:17;14.60;99.90
37702;DHT22;23548;51.196;6.838;2023-10-09T06:26:45;14.70;99.90
37702;DHT22;23548;51.196;6.838;2023-10-09T06:29:30;14.80;99.90
37702;DHT22;23548;51.196;6.838;2023-10-09T06:32:09;14.80;99.90
37702;DHT22;23548;51.196;6.838;2023-10-09T06:34:48;15.00;99.90
37702;DHT22;23548;51.196;6.838;2023-10-09T06:37:32;15.10;99.90
37702;DHT22;23548;51.196;6.838;2023-10-09T06:39:58;15.10;99.90
37702;DHT22;23548;51.196;6.838;2023-10-09T06:42:28;15.30;99.90
37702;DHT22;23548;51.196;6.838;2023-10-09T06:45:11;15.30;99.90
37702;DHT22;23548;51.196;6.838;2023-10-09T06:47:49;15.40;99.90
37702;DHT22;23548;51.196;6.838;2023-10-09T06:50:22;15.40;99.90
37702;DHT22;23548;51.196;6.838;2023-10-09T06:52:52;15.50;99.90
37702;DHT22;23548;51.196;6.838;2023-10-09T06:55:37;15.50;99.90
37702;DHT22;23548;51.196;6.838;2023-10-09T06:58:22;15.50;99.90
37702;DHT22;23548;51.196;6.838;2023-10-09T07:00:50;15.50;99.90
37702;DHT22;23548;51.196;6.838;2023-10-09T07:03:35;15.60;99.90
37702;DHT22;23548;51.196;6.838;2023-10-09T07:06:08;15.70;99.90
37702;DHT22;23548;51.196;6.838;2023-10-09T07:08:51;15.90;99.90
37702;DHT22;23548;51.196;6.838;2023-10-09T07:11:40;16.00;99.90
37702;DHT22;23548;51.196;6.838;2023-10-09T07:16:33;16.20;99.90
37702;DHT22;23548;51.196;6.838;2023-10-09T07:19:05;16.30;99.90
37702;DHT22;23548;51.196;6.838;2023-10-09T07:21:49;16.40;99.90
37702;DHT22;23548;51.196;6.838;2023-10-09T07:24:20;16.60;99.90
37702;DHT22;23548;51.196;6.838;2023-10-09T07:26:50;16.70;99.90
37702;DHT22;23548;51.196;6.838;2023-10-09T07:29:20;17.00;99.90
37702;DHT22;23548;51.196;6.838;2023-10-09T07:31:51;17.10;99.90
37702;DHT22;23548;51.196;6.838;2023-10-09T07:34:24;17.30;99.90
37702;DHT22;23548;51.196;6.838;2023-10-09T07:37:08;17.40;99.90
37702;DHT22;23548;51.196;6.838;2023-10-09T07:39:35;17.50;99.90
37702;DHT22;23548;51.196;6.838;2023-10-09T07:42:07;17.60;99.90
37702;DHT22;23548;51.196;6.838;2023-10-09T07:44:45;17.50;99.90
37702;DHT22;23548;51.196;6.838;2023-10-09T07:47:22;17.60;99.90
37702;DHT22;23548;51.196;6.838;2023-10-09T07:50:06;17.70;99.90
37702;DHT22;23548;51.196;6.838;2023-10-09T07:52:36;17.60;99.90
37702;DHT22;23548;51.196;6.838;2023-10-09T07:55:09;17.70;99.90
37702;DHT22;23548;51.196;6.838;2023-10-09T07:57:52;17.70;99.90
37702;DHT22;23548;51.196;6.838;2023-10-09T08:00:18;17.60;99.90
37702;DHT22;23548;51.196;6.838;2023-10-09T08:03:14;17.60;99.90
37702;DHT22;23548;51.196;6.838;2023-10-09T08:05:50;17.50;99.90
37702;DHT22;23548;51.196;6.838;2023-10-09T08:08:18;17.40;99.90
37702;DHT22;23548;51.196;6.838;2023-10-09T08:11:07;17.50;99.90
37702;DHT22;23548;51.196;6.838;2023-10-09T08:14:05;17.60;99.90
37702;DHT22;23548;51.196;6.838;2023-10-09T08:16:54;17.80;99.90
37702;DHT22;23548;51.196;6.838;2023-10-09T08:19:39;17.80;99.90
37702;DHT22;23548;51.196;6.838;2023-10-09T08:22:24;17.70;99.90
37702;DHT22;23548;51.196;6.838;2023-10-09T08:24:50;17.70;99.90
37702;DHT22;23548;51.196;6.838;2023-10-09T08:27:28;17.70;99.90
37702;DHT22;23548;51.196;6.838;2023-10-09T08:29:54;17.90;99.90
37702;DHT22;23548;51.196;6.838;2023-10-09T08:32:40;18.20;99.90
37702;DHT22;23548;51.196;6.838;2023-10-09T08:35:09;18.50;99.90
37702;DHT22;23548;51.196;6.838;2023-10-09T08:37:53;18.70;99.90
37702;DHT22;23548;51.196;6.838;2023-10-09T08:40:20;18.90;99.90
37702;DHT22;23548;51.196;6.838;2023-10-09T08:42:53;18.90;99.90
37702;DHT22;23548;51.196;6.838;2023-10-09T08:45:22;18.90;99.90
37702;DHT22;23548;51.196;6.838;2023-10-09T08:47:54;19.10;99.90
37702;DHT22;23548;51.196;6.838;2023-10-09T08:50:20;19.10;99.90
37702;DHT22;23548;51.196;6.838;2023-10-09T08:52:48;19.00;99.90
37702;DHT22;23548;51.196;6.838;2023-10-09T08:55:15;19.00;99.90
37702;DHT22;23548;51.196;6.838;2023-10-09T08:57:47;18.90;99.90
37702;DHT22;23548;51.196;6.838;2023-10-09T09:00:19;18.80;99.90
37702;DHT22;23548;51.196;6.838;2023-10-09T09:02:55;18.80;99.90
37702;DHT22;23548;51.196;6.838;2023-10-09T09:05:22;18.70;99.90
37702;DHT22;23548;51.196;6.838;2023-10-09T09:07:49;18.60;99.90
37702;DHT22;23548;51.196;6.838;2023-10-09T09:10:15;18.40;99.90
37702;DHT22;23548;51.196;6.838;2023-10-09T09:12:47;18.40;99.90
37702;DHT22;23548;51.196;6.838;2023-10-09T09:15:19;18.40;99.90
37702;DHT22;23548;51.196;6.838;2023-10-09T09:17:46;18.40;99.90
37702;DHT22;23548;51.196;6.838;2023-10-09T09:20:20;18.40;99.90
37702;DHT22;23548;51.196;6.838;2023-10-09T09:22:55;18.40;99.90
37702;DHT22;23548;51.196;6.838;2023-10-09T09:25:24;18.30;99.90
37702;DHT22;23548;51.196;6.838;2023-10-09T09:27:51;18.40;99.90
37702;DHT22;23548;51.196;6.838;2023-10-09T09:30:28;18.40;99.90
37702;DHT22;23548;51.196;6.838;2023-10-09T09:33:17;18.70;99.90
37702;DHT22;23548;51.196;6.838;2023-10-09T09:36:05;18.80;99.90
37702;DHT22;23548;51.196;6.838;2023-10-09T09:38:33;19.10;99.90
37702;DHT22;23548;51.196;6.838;2023-10-09T09:41:13;19.20;99.90
37702;DHT22;23548;51.196;6.838;2023-10-09T09:43:59;19.50;99.90
37702;DHT22;23548;51.196;6.838;2023-10-09T09:46:32;19.90;99.90
37702;DHT22;23548;51.196;6.838;2023-10-09T09:49:04;20.10;99.90
37702;DHT22;23548;51.196;6.838;2023-10-09T09:51:49;20.20;99.90
37702;DHT22;23548;51.196;6.838;2023-10-09T09:54:15;20.20;99.90
37702;DHT22;23548;51.196;6.838;2023-10-09T09:56:44;20.40;99.90
37702;DHT22;23548;51.196;6.838;2023-10-09T09:59:10;20.10;99.90
37702;DHT22;23548;51.196;6.838;2023-10-09T10:01:48;19.90;99.90
37702;DHT22;23548;51.196;6.838;2023-10-09T10:04:24;20.20;99.90
37702;DHT22;23548;51.196;6.838;2023-10-09T10:06:51;20.40;99.90
37702;DHT22;23548;51.196;6.838;2023-10-09T10:09:40;20.50;99.90
37702;DHT22;23548;51.196;6.838;2023-10-09T10:12:09;20.50;99.90
37702;DHT22;23548;51.196;6.838;2023-10-09T10:18:12;20.50;99.90
37702;DHT22;23548;51.196;6.838;2023-10-09T10:21:12;20.60;99.90
37702;DHT22;23548;51.196;6.838;2023-10-09T10:23:42;20.60;99.90
37702;DHT22;23548;51.196;6.838;2023-10-09T10:26:21;20.70;99.90
37702;DHT22;23548;51.196;6.838;2023-10-09T10:29:15;20.40;99.90
37702;DHT22;23548;51.196;6.838;2023-10-09T10:32:03;20.60;99.90
37702;DHT22;23548;51.196;6.838;2023-10-09T10:34:54;20.80;99.90
37702;DHT22;23548;51.196;6.838;2023-10-09T10:40:09;20.90;99.90
37702;DHT22;23548;51.196;6.838;2023-10-09T10:42:48;20.80;99.90
37702;DHT22;23548;51.196;6.838;2023-10-09T10:45:35;21.20;99.90
37702;DHT22;23548;51.196;6.838;2023-10-09T10:48:02;21.60;99.90
37702;DHT22;23548;51.196;6.838;2023-10-09T10:50:34;21.70;99.90
37702;DHT22;23548;51.196;6.838;2023-10-09T10:53:12;21.70;99.90
37702;DHT22;23548;51.196;6.838;2023-10-09T10:56:10;21.60;99.90
37702;DHT22;23548;51.196;6.838;2023-10-09T10:58:43;21.30;99.90
37702;DHT22;23548;51.196;6.838;2023-10-09T11:01:34;21.20;99.90
37702;DHT22;23548;51.196;6.838;2023-10-09T11:04:23;21.20;99.90
37702;DHT22;23548;51.196;6.838;2023-10-09T11:06:59;21.40;99.90
37702;DHT22;23548;51.196;6.838;2023-10-09T11:09:56;21.50;99.90
37702;DHT22;23548;51.196;6.838;2023-10-09T11:12:41;21.70;99.90
37702;DHT22;23548;51.196;6.838;2023-10-09T11:15:10;21.70;99.90
37702;DHT22;23548;51.196;6.838;2023-10-09T11:18:05;21.70;99.90
37702;DHT22;23548;51.196;6.838;2023-10-09T11:20:37;21.80;99.90
37702;DHT22;23548;51.196;6.838;2023-10-09T11:23:21;21.80;99.90
37702;DHT22;23548;51.196;6.838;2023-10-09T11:25:55;21.80;99.90
37702;DHT22;23548;51.196;6.838;2023-10-09T11:28:41;21.60;99.90
37702;DHT22;23548;51.196;6.838;2023-10-09T11:31:23;21.70;99.90
37702;DHT22;23548;51.196;6.838;2023-10-09T11:33:50;21.50;99.90
37702;DHT22;23548;51.196;6.838;2023-10-09T11:36:20;21.60;99.90
37702;DHT22;23548;51.196;6.838;2023-10-09T11:39:01;21.70;99.90
37702;DHT22;23548;51.196;6.838;2023-10-09T11:41:44;21.70;99.90
37702;DHT22;23548;51.196;6.838;2023-10-09T11:44:11;21.60;99.90
37702;DHT22;23548;51.196;6.838;2023-10-09T11:47:02;21.50;99.90
37702;DHT22;23548;51.196;6.838;2023-10-09T11:49:55;21.50;99.90
37702;DHT22;23548;51.196;6.838;2023-10-09T11:52:31;21.50;99.90
37702;DHT22;23548;51.196;6.838;2023-10-09T11:54:58;21.40;99.90
37702;DHT22;23548;51.196;6.838;2023-10-09T11:57:27;21.60;99.90
37702;DHT22;23548;51.196;6.838;2023-10-09T11:59:57;21.50;99.90
37702;DHT22;23548;51.196;6.838;2023-10-09T12:02:24;21.60;99.90
37702;DHT22;23548;51.196;6.838;2023-10-09T12:04:50;21.70;99.90
37702;DHT22;23548;51.196;6.838;2023-10-09T12:07:15;21.80;99.90
37702;DHT22;23548;51.196;6.838;2023-10-09T12:09:41;22.00;99.90
37702;DHT22;23548;51.196;6.838;2023-10-09T12:12:08;21.90;99.90
37702;DHT22;23548;51.196;6.838;2023-10-09T12:14:37;21.90;99.90
37702;DHT22;23548;51.196;6.838;2023-10-09T12:17:06;22.10;99.90
37702;DHT22;23548;51.196;6.838;2023-10-09T12:19:35;22.30;99.90
37702;DHT22;23548;51.196;6.838;2023-10-09T12:22:03;22.20;99.90
37702;DHT22;23548;51.196;6.838;2023-10-09T12:24:33;22.30;99.90
37702;DHT22;23548;51.196;6.838;2023-10-09T12:27:00;22.20;99.90
37702;DHT22;23548;51.196;6.838;2023-10-09T12:29:26;22.20;99.90
37702;DHT22;23548;51.196;6.838;2023-10-09T12:31:59;22.30;99.90
37702;DHT22;23548;51.196;6.838;2023-10-09T12:34:25;22.10;99.90
37702;DHT22;23548;51.196;6.838;2023-10-09T12:36:57;22.10;99.90
37702;DHT22;23548;51.196;6.838;2023-10-09T12:39:26;22.20;99.90
37702;DHT22;23548;51.196;6.838;2023-10-09T12:41:59;22.10;99.90
37702;DHT22;23548;51.196;6.838;2023-10-09T12:44:32;22.10;99.90
37702;DHT22;23548;51.196;6.838;2023-10-09T12:46:59;22.20;99.90
37702;DHT22;23548;51.196;6.838;2023-10-09T12:49:30;22.00;99.90
37702;DHT22;23548;51.196;6.838;2023-10-09T12:51:56;22.10;99.90
37702;DHT22;23548;51.196;6.838;2023-10-09T12:54:27;22.20;99.90
37702;DHT22;23548;51.196;6.838;2023-10-09T12:56:56;22.50;99.90
37702;DHT22;23548;51.196;6.838;2023-10-09T12:59:23;22.50;99.90
37702;DHT22;23548;51.196;6.838;2023-10-09T13:01:49;22.50;99.90
37702;DHT22;23548;51.196;6.838;2023-10-09T13:04:19;22.50;99.90
37702;DHT22;23548;51.196;6.838;2023-10-09T13:06:48;22.40;99.90
37702;DHT22;23548;51.196;6.838;2023-10-09T13:09:17;22.70;99.90
37702;DHT22;23548;51.196;6.838;2023-10-09T13:11:50;22.70;99.90
37702;DHT22;23548;51.196;6.838;2023-10-09T13:14:16;22.50;99.90
37702;DHT22;23548;51.196;6.838;2023-10-09T13:16:45;22.40;99.90
37702;DHT22;23548;51.196;6.838;2023-10-09T13:19:11;22.30;99.90
37702;DHT22;23548;51.196;6.838;2023-10-09T13:21:37;22.20;99.90
37702;DHT22;23548;51.196;6.838;2023-10-09T13:24:06;22.10;99.90
37702;DHT22;23548;51.196;6.838;2023-10-09T13:26:39;22.00;99.90
37702;DHT22;23548;51.196;6.838;2023-10-09T13:29:06;21.90;99.90
37702;DHT22;23548;51.196;6.838;2023-10-09T13:31:38;21.80;99.90
37702;DHT22;23548;51.196;6.838;2023-10-09T13:34:12;21.80;99.90
37702;DHT22;23548;51.196;6.838;2023-10-09T13:36:41;21.90;99.90
37702;DHT22;23548;51.196;6.838;2023-10-09T13:39:15;21.90;99.90
37702;DHT22;23548;51.196;6.838;2023-10-09T13:41:59;22.00;99.90
37702;DHT22;23548;51.196;6.838;2023-10-09T13:44:29;22.20;99.90
37702;DHT22;23548;51.196;6.838;2023-10-09T13:47:04;22.40;99.90
37702;DHT22;23548;51.196;6.838;2023-10-09T13:49:31;22.40;99.90
37702;DHT22;23548;51.196;6.838;2023-10-09T13:52:01;22.10;99.90
37702;DHT22;23548;51.196;6.838;2023-10-09T13:54:28;22.20;99.90
37702;DHT22;23548;51.196;6.838;2023-10-09T13:57:05;22.10;99.90
37702;DHT22;23548;51.196;6.838;2023-10-09T13:59:32;22.10;99.90
37702;DHT22;23548;51.196;6.838;2023-10-09T14:02:00;22.40;99.90
37702;DHT22;23548;51.196;6.838;2023-10-09T14:04:28;23.30;99.90
37702;DHT22;23548;51.196;6.838;2023-10-09T14:06:55;23.70;99.90
37702;DHT22;23548;51.196;6.838;2023-10-09T14:09:26;23.90;99.50
37702;DHT22;23548;51.196;6.838;2023-10-09T14:12:04;24.10;98.30
37702;DHT22;23548;51.196;6.838;2023-10-09T14:14:40;23.50;99.40
37702;DHT22;23548;51.196;6.838;2023-10-09T14:17:19;23.40;99.80
37702;DHT22;23548;51.196;6.838;2023-10-09T14:19:50;23.40;99.90
37702;DHT22;23548;51.196;6.838;2023-10-09T14:22:18;23.40;99.90
37702;DHT22;23548;51.196;6.838;2023-10-09T14:24:45;23.20;99.90
37702;DHT22;23548;51.196;6.838;2023-10-09T14:27:12;23.50;99.70
37702;DHT22;23548;51.196;6.838;2023-10-09T14:29:47;23.20;99.90
37702;DHT22;23548;51.196;6.838;2023-10-09T14:32:14;23.10;99.90
37702;DHT22;23548;51.196;6.838;2023-10-09T14:34:40;23.60;99.80
37702;DHT22;23548;51.196;6.838;2023-10-09T14:37:15;23.90;99.50
37702;DHT22;23548;51.196;6.838;2023-10-09T14:39:42;25.30;97.10
37702;DHT22;23548;51.196;6.838;2023-10-09T14:42:08;26.00;94.30
37702;DHT22;23548;51.196;6.838;2023-10-09T14:44:37;25.50;94.80
37702;DHT22;23548;51.196;6.838;2023-10-09T14:47:07;24.80;95.70
37702;DHT22;23548;51.196;6.838;2023-10-09T14:49:36;24.80;95.80
37702;DHT22;23548;51.196;6.838;2023-10-09T14:52:10;24.90;95.30
37702;DHT22;23548;51.196;6.838;2023-10-09T14:54:36;25.00;95.30
37702;DHT22;23548;51.196;6.838;2023-10-09T14:57:03;25.60;94.20
37702;DHT22;23548;51.196;6.838;2023-10-09T14:59:33;26.20;93.20
37702;DHT22;23548;51.196;6.838;2023-10-09T15:01:59;26.80;91.80
37702;DHT22;23548;51.196;6.838;2023-10-09T15:04:25;26.30;92.00
37702;DHT22;23548;51.196;6.838;2023-10-09T15:06:52;26.60;91.60
37702;DHT22;23548;51.196;6.838;2023-10-09T15:09:17;26.80;91.10
37702;DHT22;23548;51.196;6.838;2023-10-09T15:11:53;26.70;90.80
37702;DHT22;23548;51.196;6.838;2023-10-09T15:14:20;25.90;92.00
37702;DHT22;23548;51.196;6.838;2023-10-09T15:16:46;24.90;93.90
37702;DHT22;23548;51.196;6.838;2023-10-09T15:19:12;23.90;96.60
37702;DHT22;23548;51.196;6.838;2023-10-09T15:21:41;23.50;97.20
37702;DHT22;23548;51.196;6.838;2023-10-09T15:24:18;23.20;98.20
37702;DHT22;23548;51.196;6.838;2023-10-09T15:26:48;23.10;98.70
37702;DHT22;23548;51.196;6.838;2023-10-09T15:29:20;23.00;99.30
37702;DHT22;23548;51.196;6.838;2023-10-09T15:31:58;22.90;99.90
37702;DHT22;23548;51.196;6.838;2023-10-09T15:34:33;23.00;99.80
37702;DHT22;23548;51.196;6.838;2023-10-09T15:37:02;23.10;99.90
37702;DHT22;23548;51.196;6.838;2023-10-09T15:39:29;22.70;99.90
37702;DHT22;23548;51.196;6.838;2023-10-09T15:41:56;22.60;99.90
37702;DHT22;23548;51.196;6.838;2023-10-09T15:44:21;22.40;99.90
37702;DHT22;23548;51.196;6.838;2023-10-09T15:46:51;22.40;99.90
37702;DHT22;23548;51.196;6.838;2023-10-09T15:49:18;22.30;99.90
37702;DHT22;23548;51.196;6.838;2023-10-09T15:51:44;22.40;99.90
37702;DHT22;23548;51.196;6.838;2023-10-09T15:54:12;22.20;99.90
37702;DHT22;23548;51.196;6.838;2023-10-09T15:56:41;22.00;99.90
37702;DHT22;23548;51.196;6.838;2023-10-09T15:59:08;21.90;99.90
37702;DHT22;23548;51.196;6.838;2023-10-09T16:01:34;21.50;99.90
37702;DHT22;23548;51.196;6.838;2023-10-09T16:04:01;21.30;99.90
37702;DHT22;23548;51.196;6.838;2023-10-09T16:06:27;21.00;99.90
37702;DHT22;23548;51.196;6.838;2023-10-09T16:08:56;20.80;99.90
37702;DHT22;23548;51.196;6.838;2023-10-09T16:11:23;20.60;99.90
37702;DHT22;23548;51.196;6.838;2023-10-09T16:13:52;20.50;99.90
37702;DHT22;23548;51.196;6.838;2023-10-09T16:16:28;20.40;99.90
37702;DHT22;23548;51.196;6.838;2023-10-09T16:18:54;20.30;99.90
37702;DHT22;23548;51.196;6.838;2023-10-09T16:21:23;20.10;99.90
37702;DHT22;23548;51.196;6.838;2023-10-09T16:23:50;20.10;99.90
37702;DHT22;23548;51.196;6.838;2023-10-09T16:26:16;20.00;99.90
37702;DHT22;23548;51.196;6.838;2023-10-09T16:28:43;19.90;99.90